sensor_id;sensor_type;location;lat;lon;timestamp;pressure;altitude;pressure_sealevel;temperature;humidity
61697;BME280;47610;52.252;20.922;2023-04-30T00:04:29;99969.58;;;13.91;100.00
61697;BME280;47610;52.252;20.922;2023-04-30T00:09:32;99969.64;;;13.90;100.00
61697;BME280;47610;52.252;20.922;2023-04-30T00:14:36;99972.77;;;13.91;100.00
61697;BME280;47610;52.252;20.922;2023-04-30T00:19:39;99972.42;;;13.92;100.00
61697;BME280;47610;52.252;20.922;2023-04-30T00:24:42;99975.96;;;13.92;100.00
61697;BME280;47610;52.252;20.922;2023-04-30T00:29:45;99980.52;;;13.91;100.00
61697;BME280;47610;52.252;20.922;2023-04-30T00:34:48;99981.44;;;13.92;100.00
61697;BME280;47610;52.252;20.922;2023-04-30T00:39:51;99987.04;;;13.92;100.00
61697;BME280;47610;52.252;20.922;2023-04-30T00:44:55;99984.51;;;13.91;100.00
61697;BME280;47610;52.252;20.922;2023-04-30T00:49:58;99987.71;;;13.89;100.00
61697;BME280;47610;52.252;20.922;2023-04-30T00:55:02;99989.29;;;13.87;100.00
61697;BME280;47610;52.252;20.922;2023-04-30T01:00:07;99990.16;;;13.86;100.00
61697;BME280;47610;52.252;20.922;2023-04-30T01:05:11;99990.05;;;13.85;100.00
61697;BME280;47610;52.252;20.922;2023-04-30T01:10:14;99990.22;;;13.83;100.00
61697;BME280;47610;52.252;20.922;2023-04-30T01:15:23;99991.08;;;13.81;100.00
61697;BME280;47610;52.252;20.922;2023-04-30T01:20:30;99991.82;;;13.82;100.00
61697;BME280;47610;52.252;20.922;2023-04-30T01:25:41;99992.83;;;13.83;100.00
61697;BME280;47610;52.252;20.922;2023-04-30T01:30:46;99998.33;;;13.81;100.00
61697;BME280;47610;52.252;20.922;2023-04-30T01:41:30;100002.48;;;13.72;100.00
61697;BME280;47610;52.252;20.922;2023-04-30T01:46:35;100007.18;;;13.69;100.00
61697;BME280;47610;52.252;20.922;2023-04-30T01:51:41;100011.11;;;13.63;100.00
61697;BME280;47610;52.252;20.922;2023-04-30T01:56:50;100010.63;;;13.50;100.00
61697;BME280;47610;52.252;20.922;2023-04-30T02:01:56;100016.70;;;13.41;100.00
61697;BME280;47610;52.252;20.922;2023-04-30T02:06:59;100019.02;;;13.35;100.00
61697;BME280;47610;52.252;20.922;2023-04-30T02:12:02;100022.46;;;13.32;100.00
61697;BME280;47610;52.252;20.922;2023-04-30T02:17:06;100023.48;;;13.30;100.00
61697;BME280;47610;52.252;20.922;2023-04-30T02:22:09;100029.35;;;13.30;100.00
61697;BME280;47610;52.252;20.922;2023-04-30T02:27:12;100032.52;;;13.31;100.00
61697;BME280;47610;52.252;20.922;2023-04-30T02:32:15;100037.72;;;13.28;100.00
61697;BME280;47610;52.252;20.922;2023-04-30T02:37:18;100043.38;;;13.28;100.00
61697;BME280;47610;52.252;20.922;2023-04-30T02:42:22;100050.82;;;13.23;100.00
61697;BME280;47610;52.252;20.922;2023-04-30T02:47:25;100055.70;;;13.19;100.00
61697;BME280;47610;52.252;20.922;2023-04-30T02:52:28;100060.42;;;13.16;100.00
61697;BME280;47610;52.252;20.922;2023-04-30T02:57:31;100071.50;;;13.08;100.00
61697;BME280;47610;52.252;20.922;2023-04-30T03:02:35;100081.52;;;13.00;100.00
61697;BME280;47610;52.252;20.922;2023-04-30T03:07:38;100087.59;;;12.85;100.00
61697;BME280;47610;52.252;20.922;2023-04-30T03:12:41;100091.34;;;12.69;100.00
61697;BME280;47610;52.252;20.922;2023-04-30T03:17:45;100095.77;;;12.59;100.00
61697;BME280;47610;52.252;20.922;2023-04-30T03:22:48;100101.71;;;12.49;100.00
61697;BME280;47610;52.252;20.922;2023-04-30T03:27:51;100099.92;;;12.37;100.00
61697;BME280;47610;52.252;20.922;2023-04-30T03:32:54;100106.51;;;12.36;100.00
61697;BME280;47610;52.252;20.922;2023-04-30T03:37:57;100117.48;;;12.33;100.00
61697;BME280;47610;52.252;20.922;2023-04-30T03:43:01;100127.79;;;12.23;100.00
61697;BME280;47610;52.252;20.922;2023-04-30T03:48:04;100142.35;;;12.03;100.00
61697;BME280;47610;52.252;20.922;2023-04-30T03:53:08;100147.86;;;11.77;100.00
61697;BME280;47610;52.252;20.922;2023-04-30T03:58:11;100156.17;;;11.58;100.00
61697;BME280;47610;52.252;20.922;2023-04-30T04:03:14;100167.91;;;11.46;100.00
61697;BME280;47610;52.252;20.922;2023-04-30T04:08:18;100173.86;;;11.36;100.00
61697;BME280;47610;52.252;20.922;2023-04-30T04:13:21;100189.23;;;11.32;100.00
61697;BME280;47610;52.252;20.922;2023-04-30T04:18:24;100196.30;;;11.26;100.00
61697;BME280;47610;52.252;20.922;2023-04-30T04:23:27;100204.52;;;11.26;100.00
61697;BME280;47610;52.252;20.922;2023-04-30T04:28:31;100211.89;;;11.19;100.00
61697;BME280;47610;52.252;20.922;2023-04-30T04:33:34;100213.77;;;11.18;100.00
61697;BME280;47610;52.252;20.922;2023-04-30T04:38:37;100221.44;;;11.27;100.00
61697;BME280;47610;52.252;20.922;2023-04-30T04:43:40;100229.31;;;11.36;100.00
61697;BME280;47610;52.252;20.922;2023-04-30T04:48:44;100242.78;;;11.34;100.00
61697;BME280;47610;52.252;20.922;2023-04-30T04:53:47;100252.05;;;11.31;100.00
61697;BME280;47610;52.252;20.922;2023-04-30T04:58:51;100254.48;;;11.31;100.00
61697;BME280;47610;52.252;20.922;2023-04-30T05:03:56;100267.04;;;11.32;100.00
61697;BME280;47610;52.252;20.922;2023-04-30T05:08:59;100267.69;;;11.24;100.00
61697;BME280;47610;52.252;20.922;2023-04-30T05:14:02;100274.28;;;11.25;100.00
61697;BME280;47610;52.252;20.922;2023-04-30T05:19:06;100282.55;;;11.27;100.00
61697;BME280;47610;52.252;20.922;2023-04-30T05:24:09;100293.69;;;11.26;100.00
61697;BME280;47610;52.252;20.922;2023-04-30T05:29:13;100301.14;;;11.34;100.00
61697;BME280;47610;52.252;20.922;2023-04-30T05:34:17;100306.61;;;11.41;100.00
61697;BME280;47610;52.252;20.922;2023-04-30T05:39:20;100309.05;;;11.61;100.00
61697;BME280;47610;52.252;20.922;2023-04-30T05:44:23;100320.15;;;11.77;100.00
61697;BME280;47610;52.252;20.922;2023-04-30T05:49:27;100324.95;;;11.91;100.00
61697;BME280;47610;52.252;20.922;2023-04-30T05:54:30;100330.67;;;12.11;100.00
61697;BME280;47610;52.252;20.922;2023-04-30T05:59:33;100334.30;;;12.33;100.00
61697;BME280;47610;52.252;20.922;2023-04-30T06:04:37;100341.75;;;12.54;100.00
61697;BME280;47610;52.252;20.922;2023-04-30T06:09:40;100346.36;;;12.69;100.00
61697;BME280;47610;52.252;20.922;2023-04-30T06:14:43;100345.80;;;12.92;100.00
61697;BME280;47610;52.252;20.922;2023-04-30T06:19:46;100353.08;;;13.53;100.00
61697;BME280;47610;52.252;20.922;2023-04-30T06:24:49;100361.42;;;14.49;100.00
61697;BME280;47610;52.252;20.922;2023-04-30T06:29:53;100366.86;;;14.80;100.00
61697;BME280;47610;52.252;20.922;2023-04-30T06:34:56;100367.95;;;14.40;100.00
61697;BME280;47610;52.252;20.922;2023-04-30T06:39:59;100371.16;;;14.16;100.00
61697;BME280;47610;52.252;20.922;2023-04-30T06:45:03;100370.19;;;14.63;100.00
61697;BME280;47610;52.252;20.922;2023-04-30T06:50:07;100371.90;;;15.76;100.00
61697;BME280;47610;52.252;20.922;2023-04-30T06:55:11;100375.60;;;16.77;100.00
61697;BME280;47610;52.252;20.922;2023-04-30T07:00:15;100379.30;;;18.43;92.88
61697;BME280;47610;52.252;20.922;2023-04-30T07:05:18;100386.75;;;19.12;75.54
61697;BME280;47610;52.252;20.922;2023-04-30T07:10:21;100388.91;;;20.11;74.54
61697;BME280;47610;52.252;20.922;2023-04-30T07:15:25;100395.00;;;21.05;71.30
61697;BME280;47610;52.252;20.922;2023-04-30T07:20:29;100400.27;;;20.52;67.44
61697;BME280;47610;52.252;20.922;2023-04-30T07:25:33;100405.95;;;20.91;61.20
61697;BME280;47610;52.252;20.922;2023-04-30T07:30:36;100406.58;;;23.02;54.30
61697;BME280;47610;52.252;20.922;2023-04-30T07:35:40;100408.70;;;24.52;50.30
61697;BME280;47610;52.252;20.922;2023-04-30T07:40:43;100410.80;;;26.19;46.45
61697;BME280;47610;52.252;20.922;2023-04-30T07:45:46;100423.86;;;26.81;40.70
61697;BME280;47610;52.252;20.922;2023-04-30T07:50:49;100430.60;;;27.81;36.91
61697;BME280;47610;52.252;20.922;2023-04-30T07:55:52;100437.88;;;29.09;31.68
61697;BME280;47610;52.252;20.922;2023-04-30T08:00:56;100435.21;;;30.12;29.03
61697;BME280;47610;52.252;20.922;2023-04-30T08:05:59;100438.49;;;30.50;25.95
61697;BME280;47610;52.252;20.922;2023-04-30T08:11:02;100442.36;;;30.75;25.44
61697;BME280;47610;52.252;20.922;2023-04-30T08:16:06;100446.23;;;31.19;25.01
61697;BME280;47610;52.252;20.922;2023-04-30T08:21:09;100454.64;;;31.63;22.31
61697;BME280;47610;52.252;20.922;2023-04-30T08:26:12;100455.16;;;32.17;22.01
61697;BME280;47610;52.252;20.922;2023-04-30T08:31:16;100460.02;;;32.87;21.67
61697;BME280;47610;52.252;20.922;2023-04-30T08:36:17;100465.39;;;33.78;21.18
61697;BME280;47610;52.252;20.922;2023-04-30T08:41:24;100472.39;;;34.14;18.92
61697;BME280;47610;52.252;20.922;2023-04-30T08:46:29;100479.98;;;33.53;18.13
61697;BME280;47610;52.252;20.922;2023-04-30T08:51:34;100482.98;;;34.00;18.40
61697;BME280;47610;52.252;20.922;2023-04-30T08:56:38;100485.27;;;34.28;16.88
61697;BME280;47610;52.252;20.922;2023-04-30T09:01:41;100488.11;;;33.77;16.04
61697;BME280;47610;52.252;20.922;2023-04-30T09:06:45;100493.73;;;33.66;16.40
61697;BME280;47610;52.252;20.922;2023-04-30T09:11:48;100493.42;;;32.93;16.25
61697;BME280;47610;52.252;20.922;2023-04-30T09:16:50;100488.98;;;31.91;17.10
61697;BME280;47610;52.252;20.922;2023-04-30T09:21:53;100497.48;;;31.97;17.38
61697;BME280;47610;52.252;20.922;2023-04-30T09:26:56;100499.90;;;32.10;17.34
61697;BME280;47610;52.252;20.922;2023-04-30T09:32:08;100500.46;;;31.78;16.67
61697;BME280;47610;52.252;20.922;2023-04-30T09:37:11;100506.20;;;31.51;17.12
61697;BME280;47610;52.252;20.922;2023-04-30T09:42:15;100508.15;;;31.14;16.77
61697;BME280;47610;52.252;20.922;2023-04-30T09:47:19;100509.17;;;30.33;16.80
61697;BME280;47610;52.252;20.922;2023-04-30T09:52:22;100508.13;;;29.30;17.88
61697;BME280;47610;52.252;20.922;2023-04-30T09:57:27;100504.57;;;27.60;19.51
61697;BME280;47610;52.252;20.922;2023-04-30T10:02:33;100497.54;;;25.39;20.48
61697;BME280;47610;52.252;20.922;2023-04-30T10:07:39;100491.61;;;23.60;22.81
61697;BME280;47610;52.252;20.922;2023-04-30T10:12:49;100491.33;;;22.23;23.32
61697;BME280;47610;52.252;20.922;2023-04-30T10:17:59;100479.64;;;21.22;25.57
61697;BME280;47610;52.252;20.922;2023-04-30T10:23:04;100482.86;;;20.29;27.33
61697;BME280;47610;52.252;20.922;2023-04-30T10:28:08;100485.45;;;19.60;28.48
61697;BME280;47610;52.252;20.922;2023-04-30T10:33:20;100481.70;;;19.38;28.93
61697;BME280;47610;52.252;20.922;2023-04-30T10:38:27;100481.92;;;19.10;30.31
61697;BME280;47610;52.252;20.922;2023-04-30T10:43:31;100479.77;;;18.68;30.53
61697;BME280;47610;52.252;20.922;2023-04-30T10:48:35;100481.50;;;18.35;31.38
61697;BME280;47610;52.252;20.922;2023-04-30T10:53:38;100477.57;;;18.18;32.00
61697;BME280;47610;52.252;20.922;2023-04-30T10:58:44;100479.20;;;18.07;32.07
61697;BME280;47610;52.252;20.922;2023-04-30T11:04:05;100484.36;;;17.89;32.37
61697;BME280;47610;52.252;20.922;2023-04-30T11:09:08;100489.86;;;17.69;29.61
61697;BME280;47610;52.252;20.922;2023-04-30T11:14:12;100486.85;;;17.55;32.14
61697;BME280;47610;52.252;20.922;2023-04-30T11:19:22;100491.21;;;17.38;34.35
61697;BME280;47610;52.252;20.922;2023-04-30T11:24:50;100491.31;;;17.32;34.34
61697;BME280;47610;52.252;20.922;2023-04-30T11:29:55;100495.86;;;17.37;34.29
61697;BME280;47610;52.252;20.922;2023-04-30T11:34:58;100499.11;;;17.44;32.25
61697;BME280;47610;52.252;20.922;2023-04-30T11:40:03;100502.23;;;17.40;31.64
61697;BME280;47610;52.252;20.922;2023-04-30T11:45:09;100504.30;;;17.25;32.30
61697;BME280;47610;52.252;20.922;2023-04-30T11:50:14;100506.20;;;17.15;31.86
61697;BME280;47610;52.252;20.922;2023-04-30T11:55:19;100515.20;;;17.04;33.10
61697;BME280;47610;52.252;20.922;2023-04-30T12:00:27;100511.23;;;16.89;32.69
61697;BME280;47610;52.252;20.922;2023-04-30T12:05:30;100508.75;;;16.76;35.73
61697;BME280;47610;52.252;20.922;2023-04-30T12:10:34;100508.34;;;16.74;35.63
61697;BME280;47610;52.252;20.922;2023-04-30T12:15:37;100517.14;;;16.56;34.34
61697;BME280;47610;52.252;20.922;2023-04-30T12:20:40;100506.98;;;16.34;35.13
61697;BME280;47610;52.252;20.922;2023-04-30T12:25:45;100505.83;;;16.17;36.75
61697;BME280;47610;52.252;20.922;2023-04-30T12:30:49;100516.27;;;16.04;36.59
61697;BME280;47610;52.252;20.922;2023-04-30T12:35:53;100520.11;;;15.90;33.95
61697;BME280;47610;52.252;20.922;2023-04-30T12:40:58;100520.20;;;15.76;35.03
61697;BME280;47610;52.252;20.922;2023-04-30T12:46:02;100519.89;;;15.58;35.43
61697;BME280;47610;52.252;20.922;2023-04-30T12:51:05;100512.82;;;15.51;37.67
61697;BME280;47610;52.252;20.922;2023-04-30T12:56:10;100512.48;;;15.54;38.50
61697;BME280;47610;52.252;20.922;2023-04-30T13:01:15;100506.54;;;15.57;38.98
61697;BME280;47610;52.252;20.922;2023-04-30T13:06:19;100502.39;;;15.65;38.19
61697;BME280;47610;52.252;20.922;2023-04-30T13:11:22;100498.07;;;15.69;37.41
61697;BME280;47610;52.252;20.922;2023-04-30T13:16:26;100500.17;;;15.69;37.68
61697;BME280;47610;52.252;20.922;2023-04-30T13:21:29;100503.66;;;15.65;37.50
61697;BME280;47610;52.252;20.922;2023-04-30T13:26:32;100502.10;;;15.57;37.03
61697;BME280;47610;52.252;20.922;2023-04-30T13:31:36;100509.96;;;15.52;37.59
61697;BME280;47610;52.252;20.922;2023-04-30T13:36:39;100498.80;;;15.50;38.05
61697;BME280;47610;52.252;20.922;2023-04-30T13:41:42;100501.49;;;15.51;37.63
61697;BME280;47610;52.252;20.922;2023-04-30T13:46:45;100500.16;;;15.45;35.75
61697;BME280;47610;52.252;20.922;2023-04-30T13:51:49;100498.39;;;15.36;36.35
61697;BME280;47610;52.252;20.922;2023-04-30T13:56:54;100498.45;;;15.29;37.66
61697;BME280;47610;52.252;20.922;2023-04-30T14:01:57;100497.12;;;15.23;38.15
61697;BME280;47610;52.252;20.922;2023-04-30T14:07:01;100501.54;;;15.17;37.66
61697;BME280;47610;52.252;20.922;2023-04-30T14:12:04;100498.56;;;15.13;36.79
61697;BME280;47610;52.252;20.922;2023-04-30T14:17:08;100495.82;;;15.12;36.77
61697;BME280;47610;52.252;20.922;2023-04-30T14:22:11;100497.38;;;15.11;36.06
61697;BME280;47610;52.252;20.922;2023-04-30T14:27:15;100500.17;;;15.07;35.50
61697;BME280;47610;52.252;20.922;2023-04-30T14:32:17;100509.55;;;14.95;35.32
61697;BME280;47610;52.252;20.922;2023-04-30T14:37:21;100506.55;;;14.85;35.28
61697;BME280;47610;52.252;20.922;2023-04-30T14:42:25;100506.30;;;14.77;35.94
61697;BME280;47610;52.252;20.922;2023-04-30T14:47:29;100505.91;;;14.70;36.84
61697;BME280;47610;52.252;20.922;2023-04-30T14:52:34;100511.30;;;14.58;36.49
61697;BME280;47610;52.252;20.922;2023-04-30T14:57:37;100506.77;;;14.51;37.13
61697;BME280;47610;52.252;20.922;2023-04-30T15:02:43;100512.33;;;14.49;37.55
61697;BME280;47610;52.252;20.922;2023-04-30T15:07:46;100513.80;;;14.46;37.73
61697;BME280;47610;52.252;20.922;2023-04-30T15:12:50;100512.36;;;14.42;37.75
61697;BME280;47610;52.252;20.922;2023-04-30T15:17:55;100510.84;;;14.37;37.80
61697;BME280;47610;52.252;20.922;2023-04-30T15:22:58;100513.80;;;14.35;38.01
61697;BME280;47610;52.252;20.922;2023-04-30T15:28:01;100514.64;;;14.29;37.68
61697;BME280;47610;52.252;20.922;2023-04-30T15:33:05;100515.66;;;14.24;37.97
61697;BME280;47610;52.252;20.922;2023-04-30T15:38:08;100515.42;;;14.21;37.49
61697;BME280;47610;52.252;20.922;2023-04-30T15:43:11;100514.23;;;14.18;37.97
61697;BME280;47610;52.252;20.922;2023-04-30T15:48:15;100518.03;;;14.17;38.28
61697;BME280;47610;52.252;20.922;2023-04-30T15:53:20;100519.83;;;14.09;37.57
61697;BME280;47610;52.252;20.922;2023-04-30T15:58:23;100522.55;;;14.04;38.15
61697;BME280;47610;52.252;20.922;2023-04-30T16:03:26;100526.81;;;13.95;38.19
61697;BME280;47610;52.252;20.922;2023-04-30T16:08:30;100522.80;;;13.88;38.11
61697;BME280;47610;52.252;20.922;2023-04-30T16:13:33;100529.41;;;13.85;38.37
61697;BME280;47610;52.252;20.922;2023-04-30T16:18:36;100523.41;;;13.83;38.26
61697;BME280;47610;52.252;20.922;2023-04-30T16:23:39;100527.28;;;13.83;38.50
61697;BME280;47610;52.252;20.922;2023-04-30T16:28:43;100527.02;;;13.86;38.43
61697;BME280;47610;52.252;20.922;2023-04-30T16:33:48;100528.33;;;13.83;38.37
61697;BME280;47610;52.252;20.922;2023-04-30T16:38:49;100533.59;;;13.78;38.72
61697;BME280;47610;52.252;20.922;2023-04-30T16:43:53;100540.15;;;13.65;38.80
61697;BME280;47610;52.252;20.922;2023-04-30T16:48:56;100540.02;;;13.51;39.00
61697;BME280;47610;52.252;20.922;2023-04-30T16:53:59;100543.54;;;13.46;39.32
61697;BME280;47610;52.252;20.922;2023-04-30T16:59:02;100544.46;;;13.42;39.27
61697;BME280;47610;52.252;20.922;2023-04-30T17:04:06;100545.20;;;13.40;39.55
61697;BME280;47610;52.252;20.922;2023-04-30T17:09:10;100543.87;;;13.40;39.50
61697;BME280;47610;52.252;20.922;2023-04-30T17:14:13;100546.58;;;13.35;39.42
61697;BME280;47610;52.252;20.922;2023-04-30T17:19:19;100552.04;;;13.30;39.97
61697;BME280;47610;52.252;20.922;2023-04-30T17:24:23;100555.04;;;13.24;39.90
61697;BME280;47610;52.252;20.922;2023-04-30T17:29:26;100560.20;;;13.14;40.29
61697;BME280;47610;52.252;20.922;2023-04-30T17:34:30;100564.45;;;13.00;40.25
61697;BME280;47610;52.252;20.922;2023-04-30T17:39:34;100567.63;;;12.90;40.92
61697;BME280;47610;52.252;20.922;2023-04-30T17:44:37;100572.26;;;12.81;41.44
61697;BME280;47610;52.252;20.922;2023-04-30T17:49:41;100573.48;;;12.72;41.81
61697;BME280;47610;52.252;20.922;2023-04-30T17:54:44;100580.65;;;12.63;42.48
61697;BME280;47610;52.252;20.922;2023-04-30T17:59:49;100587.45;;;12.53;43.67
61697;BME280;47610;52.252;20.922;2023-04-30T18:04:52;100592.41;;;12.43;44.35
61697;BME280;47610;52.252;20.922;2023-04-30T18:09:55;100597.98;;;12.33;44.44
61697;BME280;47610;52.252;20.922;2023-04-30T18:14:59;100598.66;;;12.28;44.88
61697;BME280;47610;52.252;20.922;2023-04-30T18:20:03;100603.40;;;12.25;45.10
61697;BME280;47610;52.252;20.922;2023-04-30T18:25:09;100608.06;;;12.20;45.68
61697;BME280;47610;52.252;20.922;2023-04-30T18:30:13;100611.33;;;12.16;46.06
61697;BME280;47610;52.252;20.922;2023-04-30T18:35:16;100617.02;;;12.14;46.53
61697;BME280;47610;52.252;20.922;2023-04-30T18:40:20;100629.89;;;12.12;47.40
61697;BME280;47610;52.252;20.922;2023-04-30T18:45:24;100627.08;;;12.09;47.67
61697;BME280;47610;52.252;20.922;2023-04-30T18:50:27;100626.97;;;12.05;47.94
61697;BME280;47610;52.252;20.922;2023-04-30T18:55:30;100628.59;;;11.95;48.98
61697;BME280;47610;52.252;20.922;2023-04-30T19:00:34;100628.97;;;11.85;48.93
61697;BME280;47610;52.252;20.922;2023-04-30T19:05:37;100637.26;;;11.75;49.48
61697;BME280;47610;52.252;20.922;2023-04-30T19:10:40;100640.63;;;11.68;50.32
61697;BME280;47610;52.252;20.922;2023-04-30T19:15:44;100645.09;;;11.63;51.38
61697;BME280;47610;52.252;20.922;2023-04-30T19:20:56;100646.19;;;11.59;51.88
61697;BME280;47610;52.252;20.922;2023-04-30T19:25:59;100649.23;;;11.54;52.70
61697;BME280;47610;52.252;20.922;2023-04-30T19:31:03;100654.20;;;11.50;53.16
61697;BME280;47610;52.252;20.922;2023-04-30T19:36:07;100652.38;;;11.47;53.57
61697;BME280;47610;52.252;20.922;2023-04-30T19:41:12;100653.58;;;11.42;54.48
61697;BME280;47610;52.252;20.922;2023-04-30T19:46:16;100655.89;;;11.34;55.26
61697;BME280;47610;52.252;20.922;2023-04-30T19:51:20;100663.70;;;11.23;55.72
61697;BME280;47610;52.252;20.922;2023-04-30T19:56:23;100666.71;;;11.12;55.79
61697;BME280;47610;52.252;20.922;2023-04-30T20:01:26;100665.91;;;11.01;56.04
61697;BME280;47610;52.252;20.922;2023-04-30T20:06:30;100660.93;;;10.89;57.15
61697;BME280;47610;52.252;20.922;2023-04-30T20:11:33;100662.92;;;10.79;58.35
61697;BME280;47610;52.252;20.922;2023-04-30T20:16:36;100663.39;;;10.72;59.10
61697;BME280;47610;52.252;20.922;2023-04-30T20:21:40;100667.95;;;10.69;59.96
61697;BME280;47610;52.252;20.922;2023-04-30T20:26:43;100667.95;;;10.67;60.28
61697;BME280;47610;52.252;20.922;2023-04-30T20:31:46;100669.12;;;10.67;60.50
61697;BME280;47610;52.252;20.922;2023-04-30T20:36:49;100671.69;;;10.63;61.61
61697;BME280;47610;52.252;20.922;2023-04-30T20:41:52;100674.91;;;10.60;62.67
61697;BME280;47610;52.252;20.922;2023-04-30T20:46:55;100674.95;;;10.56;63.20
61697;BME280;47610;52.252;20.922;2023-04-30T20:51:59;100675.82;;;10.52;64.32
61697;BME280;47610;52.252;20.922;2023-04-30T20:57:02;100679.38;;;10.48;65.12
61697;BME280;47610;52.252;20.922;2023-04-30T21:02:05;100680.72;;;10.41;65.95
61697;BME280;47610;52.252;20.922;2023-04-30T21:07:08;100680.84;;;10.35;66.97
61697;BME280;47610;52.252;20.922;2023-04-30T21:12:12;100685.27;;;10.29;68.07
61697;BME280;47610;52.252;20.922;2023-04-30T21:17:15;100689.38;;;10.20;69.16
61697;BME280;47610;52.252;20.922;2023-04-30T21:22:18;100695.48;;;10.14;70.11
61697;BME280;47610;52.252;20.922;2023-04-30T21:27:21;100704.79;;;10.07;71.45
61697;BME280;47610;52.252;20.922;2023-04-30T21:32:25;100713.27;;;9.93;72.91
61697;BME280;47610;52.252;20.922;2023-04-30T21:37:29;100720.70;;;9.75;74.11
61697;BME280;47610;52.252;20.922;2023-04-30T21:42:32;100724.59;;;9.59;75.30
61697;BME280;47610;52.252;20.922;2023-04-30T21:47:36;100734.78;;;9.49;76.73
61697;BME280;47610;52.252;20.922;2023-04-30T21:52:40;100742.36;;;9.39;77.83
61697;BME280;47610;52.252;20.922;2023-04-30T21:57:44;100746.01;;;9.30;78.57
61697;BME280;47610;52.252;20.922;2023-04-30T22:02:49;100750.38;;;9.23;79.28
61697;BME280;47610;52.252;20.922;2023-04-30T22:07:52;100757.63;;;9.18;79.56
61697;BME280;47610;52.252;20.922;2023-04-30T22:12:56;100765.20;;;9.13;79.91
61697;BME280;47610;52.252;20.922;2023-04-30T22:17:59;100769.20;;;9.07;81.33
61697;BME280;47610;52.252;20.922;2023-04-30T22:23:03;100778.16;;;8.95;83.05
61697;BME280;47610;52.252;20.922;2023-04-30T22:28:07;100784.45;;;8.80;84.23
61697;BME280;47610;52.252;20.922;2023-04-30T22:33:10;100791.30;;;8.67;86.01
61697;BME280;47610;52.252;20.922;2023-04-30T22:38:14;100792.37;;;8.58;87.92
61697;BME280;47610;52.252;20.922;2023-04-30T22:43:17;100798.66;;;8.53;89.34
61697;BME280;47610;52.252;20.922;2023-04-30T22:48:20;100805.19;;;8.49;90.53
61697;BME280;47610;52.252;20.922;2023-04-30T22:53:24;100810.21;;;8.43;91.81
61697;BME280;47610;52.252;20.922;2023-04-30T22:58:27;100809.86;;;8.30;92.84
61697;BME280;47610;52.252;20.922;2023-04-30T23:03:32;100806.16;;;8.15;93.75
61697;BME280;47610;52.252;20.922;2023-04-30T23:08:35;100807.93;;;7.98;94.97
61697;BME280;47610;52.252;20.922;2023-04-30T23:13:39;100811.13;;;7.84;96.78
61697;BME280;47610;52.252;20.922;2023-04-30T23:18:42;100809.66;;;7.72;98.13
61697;BME280;47610;52.252;20.922;2023-04-30T23:23:46;100813.16;;;7.57;99.62
61697;BME280;47610;52.252;20.922;2023-04-30T23:28:49;100808.89;;;7.43;100.00
61697;BME280;47610;52.252;20.922;2023-04-30T23:33:52;100812.02;;;7.32;100.00
61697;BME280;47610;52.252;20.922;2023-04-30T23:38:56;100808.27;;;7.23;100.00
61697;BME280;47610;52.252;20.922;2023-04-30T23:43:59;100809.63;;;7.18;100.00
61697;BME280;47610;52.252;20.922;2023-04-30T23:49:03;100818.13;;;7.20;100.00
61697;BME280;47610;52.252;20.922;2023-04-30T23:54:07;100819.16;;;7.19;100.00
61697;BME280;47610;52.252;20.922;2023-04-30T23:59:10;100819.18;;;7.15;100.00
